createdAt,value
2019-02-16T00:00:10.059Z,21.83
2019-02-16T00:02:40.602Z,23.87
2019-02-16T00:05:11.237Z,22.00
2019-02-16T00:07:41.720Z,24.30
2019-02-16T00:10:12.146Z,22.80
2019-02-16T00:12:43.597Z,22.53
2019-02-16T00:15:14.228Z,24.37
2019-02-16T00:17:44.861Z,26.63
2019-02-16T00:20:15.294Z,24.37
2019-02-16T00:22:46.738Z,22.30
2019-02-16T00:25:17.172Z,21.77
2019-02-16T00:27:47.596Z,20.37
2019-02-16T00:30:18.019Z,20.30
2019-02-16T00:32:49.032Z,22.63
2019-02-16T00:35:19.489Z,23.50
2019-02-16T00:37:49.919Z,23.20
2019-02-16T00:40:20.352Z,19.43
2019-02-16T00:42:51.794Z,20.30
2019-02-16T00:45:22.219Z,26.17
2019-02-16T00:47:52.646Z,27.83
2019-02-16T00:50:23.076Z,18.67
2019-02-16T00:52:53.503Z,25.20
2019-02-16T00:55:23.929Z,18.73
2019-02-16T00:57:54.355Z,20.03
2019-02-16T01:00:24.884Z,22.77
2019-02-16T01:02:55.355Z,21.47
2019-02-16T01:05:25.892Z,18.90
2019-02-16T01:07:56.374Z,25.70
2019-02-16T01:10:26.799Z,24.07
2019-02-16T01:12:58.248Z,20.57
2019-02-16T01:15:28.678Z,24.47
2019-02-16T01:17:59.310Z,17.53
2019-02-16T01:20:29.734Z,21.30
2019-02-16T01:23:01.184Z,22.13
2019-02-16T01:25:31.610Z,22.37
2019-02-16T01:28:02.039Z,24.07
2019-02-16T01:30:32.466Z,21.47
2019-02-16T01:33:02.892Z,20.43
2019-02-16T01:35:33.832Z,23.57
2019-02-16T01:38:04.258Z,18.43
2019-02-16T01:40:34.692Z,21.63
2019-02-16T01:43:05.215Z,22.80
2019-02-16T01:45:35.644Z,19.70
2019-02-16T01:48:06.068Z,19.47
2019-02-16T01:50:36.497Z,23.13
2019-02-16T01:53:08.056Z,19.90
2019-02-16T01:55:38.475Z,21.47
2019-02-16T01:58:08.904Z,20.60
2019-02-16T02:00:39.335Z,18.10
2019-02-16T02:03:11.856Z,20.30
2019-02-16T02:05:42.468Z,21.30
2019-02-16T02:08:14.608Z,18.37
2019-02-16T02:10:45.037Z,18.80
2019-02-16T02:13:16.587Z,22.73
2019-02-16T02:15:47.017Z,20.87
2019-02-16T02:18:17.652Z,23.93
2019-02-16T02:20:48.070Z,20.53
2019-02-16T02:23:18.497Z,20.57
2019-02-16T02:25:48.960Z,19.33
2019-02-16T02:28:19.351Z,22.47
2019-02-16T02:30:49.778Z,20.77
2019-02-16T02:33:21.239Z,23.70
2019-02-16T02:35:51.658Z,19.60
2019-02-16T02:38:22.128Z,22.23
2019-02-16T02:40:52.633Z,21.73
2019-02-16T02:43:24.064Z,19.17
2019-02-16T02:45:54.491Z,22.00
2019-02-16T02:48:24.919Z,22.13
2019-02-16T02:50:55.352Z,21.43
2019-02-16T02:53:31.054Z,23.27
2019-02-16T02:55:58.861Z,22.53
2019-02-16T02:58:29.289Z,24.00
2019-02-16T03:00:59.714Z,20.97
2019-02-16T03:03:30.191Z,22.70
2019-02-16T03:06:00.788Z,22.60
2019-02-16T03:08:31.268Z,22.23
2019-02-16T03:11:01.732Z,25.43
2019-02-16T03:13:32.365Z,21.87
2019-02-16T03:16:02.972Z,24.77
2019-02-16T03:18:33.629Z,20.70
2019-02-16T03:21:04.053Z,23.87
2019-02-16T03:23:34.588Z,22.33
2019-02-16T03:26:32.351Z,24.80
2019-02-16T03:29:30.220Z,23.40
2019-02-16T03:32:56.779Z,25.67
2019-02-16T03:36:00.440Z,29.27
2019-02-16T03:39:20.667Z,25.47
2019-02-16T03:41:51.092Z,26.17
2019-02-16T03:44:21.518Z,25.67
2019-02-16T03:46:51.945Z,28.50
2019-02-16T03:49:22.374Z,25.80
2019-02-16T03:51:53.825Z,27.43
2019-02-16T03:54:24.251Z,26.80
2019-02-16T03:56:54.684Z,23.27
2019-02-16T03:59:25.106Z,26.87
2019-02-16T04:01:55.533Z,25.53
2019-02-16T04:04:26.007Z,27.60
2019-02-16T04:06:56.532Z,25.13
2019-02-16T04:09:27.076Z,25.93
2019-02-16T04:11:58.624Z,27.27
2019-02-16T04:14:29.091Z,29.00
2019-02-16T04:16:59.524Z,26.93
2019-02-16T04:19:30.167Z,32.03
2019-02-16T04:22:00.587Z,27.00
2019-02-16T04:24:31.026Z,27.10
2019-02-16T04:27:01.445Z,26.83
2019-02-16T04:29:32.992Z,27.40
2019-02-16T04:32:03.423Z,20.80
2019-02-16T04:34:33.846Z,27.87
2019-02-16T04:37:04.277Z,22.30
2019-02-16T04:39:34.703Z,27.00
2019-02-16T04:42:05.170Z,27.63
2019-02-16T04:44:35.659Z,29.33
2019-02-16T04:47:06.086Z,26.83
2019-02-16T04:49:36.511Z,27.10
2019-02-16T04:52:06.939Z,28.30
2019-02-16T04:54:37.367Z,25.17
2019-02-16T04:57:07.896Z,27.23
2019-02-16T04:59:38.323Z,28.07
2019-02-16T05:02:08.790Z,23.23
2019-02-16T05:04:39.381Z,26.43
2019-02-16T05:07:09.960Z,30.13
2019-02-16T05:09:40.647Z,24.80
2019-02-16T05:12:11.583Z,30.47
2019-02-16T05:14:42.011Z,30.50
2019-02-16T05:17:12.437Z,28.73
2019-02-16T05:19:43.071Z,31.47
2019-02-16T05:22:13.507Z,26.93
2019-02-16T05:24:43.955Z,28.87
2019-02-16T05:27:14.350Z,27.23
2019-02-16T05:29:44.778Z,32.90
2019-02-16T05:32:15.209Z,36.60
2019-02-16T05:34:45.631Z,27.50
2019-02-16T05:37:16.059Z,32.63
2019-02-16T05:39:46.691Z,25.47
2019-02-16T05:42:17.120Z,31.00
2019-02-16T05:44:47.876Z,28.70
2019-02-16T05:47:18.483Z,30.57
2019-02-16T05:49:49.116Z,26.77
2019-02-16T05:52:19.749Z,25.47
2019-02-16T05:54:50.188Z,29.90
2019-02-16T05:57:20.602Z,28.57
2019-02-16T05:59:51.035Z,30.47
2019-02-16T06:02:22.479Z,29.83
2019-02-16T06:04:52.955Z,31.80
2019-02-16T06:07:23.488Z,28.93
2019-02-16T06:09:54.169Z,28.00
2019-02-16T06:12:24.697Z,29.77
2019-02-16T06:14:55.183Z,30.43
2019-02-16T06:17:25.654Z,32.80
2019-02-16T06:19:56.287Z,26.90
2019-02-16T06:22:26.715Z,27.90
2019-02-16T06:24:57.142Z,27.13
2019-02-16T06:27:27.566Z,29.50
2019-02-16T06:29:57.983Z,29.23
2019-02-16T06:32:28.425Z,24.53
2019-02-16T06:35:11.139Z,31.17
2019-02-16T06:37:41.772Z,24.70
2019-02-16T06:40:12.402Z,29.03
2019-02-16T06:42:43.032Z,27.07
2019-02-16T06:45:13.459Z,29.10
2019-02-16T06:47:43.938Z,29.77
2019-02-16T06:50:14.416Z,27.40
2019-02-16T06:52:45.866Z,25.27
2019-02-16T06:55:16.293Z,19.10
2019-02-16T06:57:49.542Z,24.90
2019-02-16T07:00:22.642Z,21.97
2019-02-16T07:02:53.107Z,31.33
2019-02-16T07:05:23.579Z,25.10
2019-02-16T07:07:54.174Z,26.40
2019-02-16T07:10:24.591Z,25.20
2019-02-16T07:12:56.044Z,26.57
2019-02-16T07:15:26.470Z,22.63
2019-02-16T07:18:18.398Z,27.10
2019-02-16T07:20:49.041Z,24.30
2019-02-16T07:23:22.738Z,23.30
2019-02-16T07:25:52.649Z,24.93
2019-02-16T07:28:23.282Z,24.73
2019-02-16T07:30:53.707Z,24.30
2019-02-16T07:33:24.135Z,29.60
2019-02-16T07:35:54.562Z,28.07
2019-02-16T07:38:24.988Z,27.40
2019-02-16T07:40:55.416Z,23.03
2019-02-16T07:43:43.662Z,27.17
2019-02-16T07:46:27.595Z,24.73
2019-02-16T07:49:04.892Z,23.50
2019-02-16T07:52:00.307Z,26.83
2019-02-16T07:54:40.962Z,30.97
2019-02-16T07:57:25.421Z,21.33
2019-02-16T08:00:15.007Z,27.20
2019-02-16T08:03:02.943Z,23.53
2019-02-16T08:05:54.145Z,23.10
2019-02-16T08:08:47.844Z,23.63
2019-02-16T08:11:43.671Z,24.23
2019-02-16T08:14:34.169Z,25.93
2019-02-16T08:17:24.339Z,20.10
2019-02-16T08:20:13.612Z,25.33
2019-02-16T08:23:03.305Z,22.53
2019-02-16T08:25:52.552Z,25.33
2019-02-16T08:28:51.040Z,21.87
2019-02-16T08:31:30.173Z,22.33
2019-02-16T08:34:15.240Z,23.33
2019-02-16T08:37:16.490Z,22.97
2019-02-16T08:40:14.873Z,20.40
2019-02-16T08:43:07.009Z,23.57
2019-02-16T08:45:59.451Z,26.37
2019-02-16T08:48:57.731Z,23.33
2019-02-16T08:51:56.423Z,22.23
2019-02-16T08:54:48.557Z,24.60
2019-02-16T08:57:36.598Z,21.20
2019-02-16T09:00:35.389Z,19.43
2019-02-16T09:03:24.249Z,22.53
2019-02-16T09:06:20.687Z,18.20
2019-02-16T09:09:09.854Z,18.40
2019-02-16T09:11:56.668Z,17.27
2019-02-16T09:14:46.138Z,13.93
2019-02-16T09:17:39.813Z,12.20
2019-02-16T09:20:39.728Z,13.43
2019-02-16T09:23:40.263Z,13.87
2019-02-16T09:26:35.676Z,13.67
2019-02-16T09:29:20.437Z,11.43
2019-02-16T09:32:24.963Z,11.50
2019-02-16T09:35:13.207Z,13.70
2019-02-16T09:37:58.995Z,17.27
2019-02-16T09:40:54.407Z,14.70
2019-02-16T09:43:52.892Z,15.97
2019-02-16T09:46:33.155Z,17.13
2019-02-16T09:49:29.893Z,16.37
2019-02-16T09:52:22.439Z,15.03
2019-02-16T09:55:21.026Z,18.17
2019-02-16T09:58:16.337Z,19.47
2019-02-16T10:00:56.388Z,14.03
2019-02-16T10:03:40.438Z,16.83
2019-02-16T10:06:32.882Z,16.77
2019-02-16T10:09:19.588Z,16.53
2019-02-16T10:12:24.014Z,15.17
2019-02-16T10:15:12.052Z,14.10
2019-02-16T10:18:04.601Z,13.73
2019-02-16T10:20:53.968Z,17.30
2019-02-16T10:23:45.788Z,15.47
2019-02-16T10:26:39.266Z,20.73
2019-02-16T10:29:27.313Z,23.83
2019-02-16T10:32:22.821Z,18.13
2019-02-16T10:35:30.526Z,18.03
2019-02-16T10:38:14.876Z,24.83
2019-02-16T10:41:12.950Z,22.50
2019-02-16T10:44:01.492Z,18.80
2019-02-16T10:46:56.915Z,20.97
2019-02-16T10:49:33.280Z,25.07
2019-02-16T10:52:21.524Z,19.70
2019-02-16T10:54:58.813Z,16.70
2019-02-16T10:57:48.583Z,16.77
2019-02-16T11:00:28.239Z,28.03
2019-02-16T11:03:18.633Z,14.43
2019-02-16T11:06:04.932Z,17.80
2019-02-16T11:08:59.321Z,21.53
2019-02-16T11:11:37.532Z,17.17
2019-02-16T11:14:26.903Z,16.43
2019-02-16T11:17:14.839Z,14.20
2019-02-16T11:20:19.265Z,20.63
2019-02-16T11:22:56.067Z,16.63
2019-02-16T11:25:54.523Z,11.90
2019-02-16T11:28:42.768Z,11.70
2019-02-16T11:31:26.599Z,12.60
2019-02-16T11:34:14.547Z,10.37
2019-02-16T11:37:06.991Z,11.60
2019-02-16T11:40:02.100Z,10.53
2019-02-16T11:43:09.899Z,10.57
2019-02-16T11:45:48.824Z,13.23
2019-02-16T11:48:38.197Z,13.23
2019-02-16T11:51:15.802Z,10.47
2019-02-16T11:54:05.881Z,9.00
2019-02-16T11:56:55.250Z,12.80
2019-02-16T11:59:37.046Z,11.23
2019-02-16T12:02:29.384Z,14.93
2019-02-16T12:05:18.756Z,12.23
2019-02-16T12:08:08.231Z,17.63
2019-02-16T12:10:54.733Z,17.73
2019-02-16T12:13:56.086Z,16.97
2019-02-16T12:16:36.037Z,16.77
2019-02-16T12:19:25.406Z,22.27
2019-02-16T12:22:14.779Z,17.17
2019-02-16T12:25:05.002Z,18.43
2019-02-16T12:27:43.999Z,14.63
2019-02-16T12:30:48.733Z,16.73
2019-02-16T12:33:40.146Z,19.97
2019-02-16T12:36:41.707Z,22.20
2019-02-16T12:39:22.063Z,18.80
2019-02-16T12:42:08.261Z,16.33
2019-02-16T12:45:21.371Z,15.63
2019-02-16T12:48:02.875Z,18.33
2019-02-16T12:50:47.434Z,24.43
2019-02-16T12:53:41.107Z,24.73
2019-02-16T12:56:35.393Z,26.50
2019-02-16T12:59:19.957Z,22.20
2019-02-16T13:01:56.890Z,24.40
2019-02-16T13:05:04.634Z,22.80
2019-02-16T13:07:55.242Z,22.53
2019-02-16T13:10:45.642Z,24.23
2019-02-16T13:13:29.573Z,28.67
2019-02-16T13:16:35.941Z,24.03
2019-02-16T13:19:35.961Z,25.50
2019-02-16T13:22:14.179Z,34.37
2019-02-16T13:25:24.429Z,24.90
2019-02-16T13:28:11.550Z,28.33
2019-02-16T13:31:03.686Z,22.73
2019-02-16T13:33:50.490Z,14.53
2019-02-16T13:36:33.517Z,18.73
2019-02-16T13:39:18.897Z,21.03
2019-02-16T13:42:11.241Z,18.97
2019-02-16T13:44:59.382Z,14.75
2019-02-16T13:48:01.040Z,20.08
2019-02-16T13:50:49.589Z,21.13
2019-02-16T13:53:48.076Z,18.83
2019-02-16T13:56:36.730Z,18.33
2019-02-16T13:59:26.103Z,17.20
2019-02-16T14:02:18.442Z,23.90
2019-02-16T14:05:06.482Z,19.93
2019-02-16T14:07:54.420Z,19.67
2019-02-16T14:10:35.405Z,16.97
2019-02-16T14:13:21.078Z,21.20
2019-02-16T14:16:00.516Z,16.50
2019-02-16T14:18:30.944Z,21.70
2019-02-16T14:21:02.805Z,19.37
2019-02-16T14:23:34.254Z,17.57
2019-02-16T14:26:04.691Z,13.72
2019-02-16T14:28:35.281Z,16.12
2019-02-16T14:31:05.743Z,15.83
2019-02-16T14:33:37.399Z,14.63
2019-02-16T14:36:08.035Z,18.00
2019-02-16T14:38:56.479Z,15.00
2019-02-16T14:41:27.109Z,17.42
2019-02-16T14:43:58.563Z,16.23
2019-02-16T14:46:28.989Z,16.48
2019-02-16T14:48:59.415Z,20.40
2019-02-16T14:51:29.842Z,17.05
2019-02-16T14:54:01.294Z,16.05
2019-02-16T14:56:31.728Z,19.98
2019-02-16T14:59:02.153Z,18.45
2019-02-16T15:01:32.574Z,22.10
2019-02-16T15:04:03.002Z,18.57
2019-02-16T15:06:33.527Z,15.80
2019-02-16T15:09:04.923Z,23.27
2019-02-16T15:11:35.529Z,17.57
2019-02-16T15:14:06.045Z,15.68
2019-02-16T15:16:36.467Z,17.30
2019-02-16T15:19:06.894Z,16.65
2019-02-16T15:21:37.327Z,15.03
2019-02-16T15:24:07.850Z,14.93
2019-02-16T15:26:38.283Z,16.20
2019-02-16T15:29:08.908Z,21.30
2019-02-16T15:31:39.438Z,18.17
2019-02-16T15:34:09.867Z,14.40
2019-02-16T15:36:40.293Z,21.00
2019-02-16T15:39:10.767Z,14.03
2019-02-16T15:41:41.248Z,13.25
2019-02-16T15:44:12.698Z,15.30
2019-02-16T15:46:43.127Z,15.83
2019-02-16T15:49:13.552Z,18.55
2019-02-16T15:51:43.984Z,15.83
2019-02-16T15:54:14.515Z,18.10
2019-02-16T15:56:44.937Z,20.55
2019-02-16T15:59:15.434Z,18.17
2019-02-16T16:01:45.959Z,18.32
2019-02-16T16:04:17.454Z,15.03
2019-02-16T16:06:50.331Z,20.68
2019-02-16T16:09:29.462Z,24.43
2019-02-16T16:12:24.979Z,22.02
2019-02-16T16:15:00.287Z,25.50
2019-02-16T16:17:37.711Z,19.25
2019-02-16T16:20:17.968Z,17.12
2019-02-16T16:23:13.591Z,18.98
2019-02-16T16:25:59.987Z,20.90
2019-02-16T16:28:42.088Z,15.68
2019-02-16T16:31:40.472Z,15.90
2019-02-16T16:34:32.605Z,17.17
2019-02-16T16:37:34.163Z,19.00
2019-02-16T16:40:26.607Z,17.20
2019-02-16T16:43:15.977Z,16.20
2019-02-16T16:46:08.422Z,19.47
2019-02-16T16:48:56.465Z,16.90
2019-02-16T16:51:39.482Z,18.17
2019-02-16T16:54:28.856Z,17.97
2019-02-16T16:57:21.000Z,21.87
2019-02-16T17:00:25.522Z,20.60
2019-02-16T17:03:09.767Z,17.47
2019-02-16T17:06:00.777Z,17.50
2019-02-16T17:08:59.374Z,15.40
2019-02-16T17:11:55.187Z,20.07
2019-02-16T17:14:53.773Z,23.57
2019-02-16T17:17:40.893Z,18.27
2019-02-16T17:20:22.583Z,24.20
2019-02-16T17:23:06.527Z,21.60
2019-02-16T17:25:54.470Z,28.07
2019-02-16T17:28:42.608Z,24.27
2019-02-16T17:31:28.291Z,24.27
2019-02-16T17:34:17.766Z,24.83
2019-02-16T17:37:05.908Z,21.30
2019-02-16T17:40:10.638Z,26.77
2019-02-16T17:43:18.340Z,21.90
2019-02-16T17:46:07.605Z,24.03
2019-02-16T17:48:44.281Z,22.70
2019-02-16T17:51:34.166Z,20.93
2019-02-16T17:54:22.103Z,26.47
2019-02-16T17:57:20.487Z,27.07
2019-02-16T18:00:08.833Z,24.63
2019-02-16T18:03:04.348Z,28.33
2019-02-16T18:05:56.792Z,24.43
2019-02-16T18:08:49.029Z,22.70
2019-02-16T18:11:38.605Z,30.70
2019-02-16T18:14:23.267Z,23.53
2019-02-16T18:17:12.947Z,27.30
2019-02-16T18:19:49.004Z,24.33
2019-02-16T18:22:28.236Z,24.40
2019-02-16T18:25:16.396Z,29.30
2019-02-16T18:28:19.571Z,26.73
2019-02-16T18:31:12.222Z,28.60
2019-02-16T18:34:15.521Z,31.77
2019-02-16T18:37:00.697Z,27.50
2019-02-16T18:39:51.146Z,27.47
2019-02-16T18:42:43.736Z,27.80
2019-02-16T18:45:24.506Z,28.20
2019-02-16T18:48:24.219Z,29.97
2019-02-16T18:51:23.830Z,25.73
2019-02-16T18:54:08.306Z,28.37
2019-02-16T18:57:07.154Z,31.73
2019-02-16T18:59:48.157Z,28.20
2019-02-16T19:02:51.053Z,27.83
2019-02-16T19:05:40.215Z,25.37
2019-02-16T19:08:29.582Z,32.37
2019-02-16T19:11:14.977Z,33.03
2019-02-16T19:14:22.658Z,31.20
2019-02-16T19:17:12.449Z,35.30
2019-02-16T19:19:55.770Z,33.63
2019-02-16T19:22:57.533Z,42.00
2019-02-16T19:25:38.715Z,34.20
2019-02-16T19:28:34.124Z,35.60
2019-02-16T19:31:22.164Z,41.73
2019-02-16T19:34:17.882Z,42.37
2019-02-16T19:37:06.024Z,41.33
2019-02-16T19:39:43.593Z,39.63
2019-02-16T19:42:39.137Z,49.07
2019-02-16T19:45:28.917Z,49.83
2019-02-16T19:48:18.392Z,47.50
2019-02-16T19:51:07.862Z,44.73
2019-02-16T19:53:57.234Z,49.13
2019-02-16T19:56:49.679Z,50.03
2019-02-16T19:59:37.615Z,52.10
2019-02-16T20:02:24.838Z,62.83
2019-02-16T20:05:13.182Z,60.43
2019-02-16T20:07:57.127Z,68.53
2019-02-16T20:10:41.992Z,62.07
2019-02-16T20:13:34.435Z,63.50
2019-02-16T20:16:10.201Z,59.13
2019-02-16T20:18:54.030Z,63.77
2019-02-16T20:21:52.313Z,69.63
2019-02-16T20:24:33.079Z,75.70
2019-02-16T20:27:36.767Z,64.03
2019-02-16T20:30:16.529Z,81.80
2019-02-16T20:33:05.492Z,63.43
2019-02-16T20:35:53.531Z,71.93
2019-02-16T20:38:48.637Z,78.10
2019-02-16T20:41:44.051Z,68.63
2019-02-16T20:44:36.493Z,69.67
2019-02-16T20:47:28.835Z,73.43
2019-02-16T20:50:16.880Z,76.77
2019-02-16T20:53:01.330Z,65.80
2019-02-16T20:56:08.827Z,68.50
2019-02-16T20:59:25.847Z,61.70
2019-02-16T21:02:18.597Z,55.67
2019-02-16T21:05:06.841Z,63.20
2019-02-16T21:07:48.127Z,54.43
2019-02-16T21:10:28.483Z,59.47
2019-02-16T21:13:28.196Z,66.57
2019-02-16T21:16:26.681Z,67.70
2019-02-16T21:19:05.301Z,63.10
2019-02-16T21:21:57.744Z,63.13
2019-02-16T21:24:56.028Z,67.57
2019-02-16T21:27:44.063Z,68.20
2019-02-16T21:30:26.052Z,66.37
2019-02-16T21:33:04.680Z,70.93
2019-02-16T21:35:45.963Z,72.27
2019-02-16T21:38:44.347Z,71.63
2019-02-16T21:42:02.801Z,73.20
2019-02-16T21:44:52.170Z,78.70
2019-02-16T21:47:40.311Z,77.67
2019-02-16T21:50:49.892Z,81.73
2019-02-16T21:53:36.256Z,90.43
2019-02-16T21:56:25.319Z,90.20
2019-02-16T21:59:38.141Z,92.47
2019-02-16T22:02:15.132Z,80.17
2019-02-16T22:05:14.940Z,95.57
2019-02-16T22:08:03.183Z,88.63
2019-02-16T22:11:04.945Z,81.03
2019-02-16T22:13:35.515Z,92.73
2019-02-16T22:16:06.054Z,80.53
2019-02-16T22:18:36.737Z,86.67
2019-02-16T22:21:07.163Z,84.97
2019-02-16T22:23:38.733Z,95.80
2019-02-16T22:26:09.153Z,94.70
2019-02-16T22:28:39.571Z,93.17
2019-02-16T22:31:10.000Z,92.50
2019-02-16T22:33:40.426Z,86.17
2019-02-16T22:36:10.964Z,83.40
2019-02-16T22:38:43.782Z,85.27
2019-02-16T22:41:13.550Z,83.10
2019-02-16T22:43:43.978Z,82.20
2019-02-16T22:46:14.402Z,80.33
2019-02-16T22:48:44.830Z,78.67
2019-02-16T22:51:15.258Z,80.97
2019-02-16T22:53:46.712Z,78.97
2019-02-16T22:56:17.200Z,77.93
2019-02-16T22:58:47.664Z,75.87
2019-02-16T23:01:18.396Z,75.00
2019-02-16T23:03:48.928Z,77.03
2019-02-16T23:06:19.356Z,72.60
2019-02-16T23:08:49.783Z,71.50
2019-02-16T23:11:20.218Z,68.40
2019-02-16T23:13:50.683Z,71.60
2019-02-16T23:16:21.242Z,65.47
2019-02-16T23:18:51.694Z,64.17
2019-02-16T23:21:22.235Z,67.73
2019-02-16T23:23:52.752Z,66.30
2019-02-16T23:26:23.182Z,60.60
2019-02-16T23:28:53.760Z,63.13
2019-02-16T23:31:24.250Z,58.00
2019-02-16T23:33:54.771Z,59.50
2019-02-16T23:36:25.205Z,65.57
2019-02-16T23:38:55.724Z,55.50
2019-02-16T23:41:26.156Z,54.23
2019-02-16T23:43:57.602Z,52.87
2019-02-16T23:46:28.038Z,52.33
2019-02-16T23:48:58.459Z,48.97
2019-02-16T23:51:28.884Z,47.63
2019-02-16T23:53:59.318Z,55.67
2019-02-16T23:56:29.738Z,49.27
2019-02-16T23:59:00.219Z,50.37
